Oxford, Canada
Current Conditions -  °F | °C
As of 6:00 PM on Tuesday 21 Oct 2014 (Local Time) from CYQM Reporting Station
Overcast Overcast  
Wind Chill: 10°   Ceiling: 13000
Heat Index: 10°   Visibility: 15mi
Dew Point:   Wind: 2mph
Humidity: 54%   Direction: 270°W
Pressure: 30.17"   Gusts: NA
Location:  45.73°N, 63.87°W
Report Text: CYQM 212100Z 27002KT 15SM FEW060 BKN130 OVC200 10/01 A3017 RMK SC1AS6CI1 SLP220
Loading
Personal Weather Stations






























Interactive Weather Map
Tropical Storm Tracking
New forecast layout! Learn more

10-Day Weather Forecast

Advertisements
Track Severe Weather on mobile